createdAt,value
2024-05-09T00:00:56.497Z,98581.03
2024-05-09T00:05:01.436Z,98583.16
2024-05-09T00:09:06.420Z,98579.97
2024-05-09T00:13:11.855Z,98573.22
2024-05-09T00:17:19.312Z,98566.47
2024-05-09T00:21:24.014Z,98565.00
2024-05-09T00:25:28.678Z,98570.66
2024-05-09T00:29:33.383Z,98563.91
2024-05-09T00:33:40.914Z,98569.59
2024-05-09T00:37:45.686Z,98572.09
2024-05-09T00:41:50.339Z,98574.19
2024-05-09T00:45:56.954Z,98569.97
2024-05-09T00:50:09.793Z,98561.44
2024-05-09T00:54:19.858Z,98565.09
2024-05-09T00:58:27.522Z,98563.53
2024-05-09T01:02:32.595Z,98559.91
2024-05-09T01:06:40.257Z,98558.97
2024-05-09T01:10:46.180Z,98556.34
2024-05-09T01:14:52.701Z,98549.41
2024-05-09T01:18:58.516Z,98544.34
2024-05-09T01:23:10.392Z,98549.06
2024-05-09T01:27:15.305Z,98539.78
2024-05-09T01:31:19.988Z,98540.00
2024-05-09T01:35:25.235Z,98549.88
2024-05-09T01:39:32.716Z,98551.03
2024-05-09T01:43:37.367Z,98561.94
2024-05-09T01:47:42.280Z,98567.47
2024-05-09T01:51:47.129Z,98558.00
2024-05-09T01:55:54.417Z,98566.09
2024-05-09T01:59:59.241Z,98562.69
2024-05-09T02:04:04.173Z,98544.53
2024-05-09T02:08:10.125Z,98548.25
2024-05-09T02:12:17.730Z,98535.44
2024-05-09T02:16:22.557Z,98542.78
2024-05-09T02:20:33.570Z,98540.53
2024-05-09T02:24:41.105Z,98537.25
2024-05-09T02:28:48.441Z,98546.16
2024-05-09T02:32:53.217Z,98549.81
2024-05-09T02:36:58.298Z,98541.94
2024-05-09T02:41:03.003Z,98549.28
2024-05-09T02:45:10.845Z,98543.06
2024-05-09T02:49:15.972Z,98539.50
2024-05-09T02:53:22.346Z,98533.31
2024-05-09T02:57:27.044Z,98532.56
2024-05-09T03:01:34.530Z,98534.44
2024-05-09T03:05:39.625Z,98535.94
2024-05-09T03:09:48.858Z,98529.91
2024-05-09T03:13:54.355Z,98530.88
2024-05-09T03:18:02.380Z,98529.75
2024-05-09T03:22:07.566Z,98535.00
2024-05-09T03:26:16.026Z,98541.00
2024-05-09T03:30:29.602Z,98535.56
2024-05-09T03:34:44.391Z,98538.94
2024-05-09T03:38:50.393Z,98538.84
2024-05-09T03:42:55.086Z,98535.16
2024-05-09T03:46:59.873Z,98530.94
2024-05-09T03:51:07.788Z,98531.59
2024-05-09T03:55:12.510Z,98536.00
2024-05-09T03:59:17.219Z,98523.72
2024-05-09T04:03:22.140Z,98526.34
2024-05-09T04:07:29.611Z,98535.34
2024-05-09T04:11:34.496Z,98533.69
2024-05-09T04:15:39.285Z,98533.84
2024-05-09T04:19:44.053Z,98535.84
2024-05-09T04:23:51.362Z,98538.56
2024-05-09T04:27:56.763Z,98538.66
2024-05-09T04:32:01.560Z,98536.88
2024-05-09T04:36:06.640Z,98541.19
2024-05-09T04:40:23.962Z,98546.44
2024-05-09T04:44:35.951Z,98539.50
2024-05-09T04:48:40.803Z,98548.97
2024-05-09T04:52:45.983Z,98545.22
2024-05-09T04:56:53.269Z,98547.53
2024-05-09T05:00:58.004Z,98542.13
2024-05-09T05:05:03.020Z,98548.09
2024-05-09T05:09:09.251Z,98561.16
2024-05-09T05:13:21.381Z,98554.09
2024-05-09T05:17:27.359Z,98554.09
2024-05-09T05:21:32.179Z,98555.91
2024-05-09T05:25:36.840Z,98559.56
2024-05-09T05:29:44.409Z,98549.91
2024-05-09T05:33:51.436Z,98556.72
2024-05-09T05:37:56.245Z,98555.81
2024-05-09T05:42:00.930Z,98553.06
2024-05-09T05:46:08.232Z,98559.91
2024-05-09T05:50:23.685Z,98559.81
2024-05-09T05:54:32.375Z,98566.66
2024-05-09T05:58:37.025Z,98564.41
2024-05-09T06:02:45.533Z,98567.47
2024-05-09T06:06:51.281Z,98567.63
2024-05-09T06:10:56.014Z,98564.41
2024-05-09T06:15:00.874Z,98563.81
2024-05-09T06:19:08.356Z,98566.75
2024-05-09T06:23:13.446Z,98569.09
2024-05-09T06:27:18.604Z,98562.78
2024-05-09T06:31:20.652Z,98561.56
2024-05-09T06:35:28.057Z,98566.59
2024-05-09T06:39:33.030Z,98567.03
2024-05-09T06:43:37.933Z,98568.31
2024-05-09T06:47:42.754Z,98566.22
2024-05-09T06:51:50.143Z,98562.38
2024-05-09T06:55:54.843Z,98573.31
2024-05-09T07:00:00.878Z,98578.06
2024-05-09T07:04:06.022Z,98575.03
2024-05-09T07:08:11.001Z,98574.63
2024-05-09T07:12:15.864Z,98565.88
2024-05-09T07:16:20.641Z,98568.81
2024-05-09T07:20:33.738Z,98578.09
2024-05-09T07:24:42.366Z,98589.66
2024-05-09T07:28:47.098Z,98575.97
2024-05-09T07:32:52.413Z,98571.94
2024-05-09T07:36:57.305Z,98573.41
2024-05-09T07:41:04.697Z,98571.28
2024-05-09T07:45:24.247Z,98574.44
2024-05-09T07:53:47.230Z,98561.88
2024-05-09T07:57:58.122Z,98551.97
2024-05-09T08:02:03.031Z,98563.16
2024-05-09T08:06:08.418Z,98560.19
2024-05-09T08:10:15.483Z,98559.00
2024-05-09T08:14:26.195Z,98548.03
2024-05-09T08:18:31.139Z,98542.50
2024-05-09T08:22:36.261Z,98549.72
2024-05-09T08:26:41.026Z,98546.13
2024-05-09T08:30:48.675Z,98547.69
2024-05-09T08:34:53.584Z,98545.66
2024-05-09T08:38:58.301Z,98553.06
2024-05-09T08:43:03.601Z,98540.13
2024-05-09T08:47:12.572Z,98549.72
2024-05-09T08:51:17.822Z,98554.75
2024-05-09T08:55:22.840Z,98553.56
2024-05-09T08:59:34.946Z,98547.75
2024-05-09T09:03:44.095Z,98554.91
2024-05-09T09:07:51.602Z,98544.97
2024-05-09T09:11:56.359Z,98548.69
2024-05-09T09:16:02.883Z,98540.75
2024-05-09T09:20:16.428Z,98545.81
2024-05-09T09:24:24.006Z,98545.13
2024-05-09T09:28:29.563Z,98541.47
2024-05-09T09:32:34.432Z,98538.53
2024-05-09T09:36:47.124Z,98538.22
2024-05-09T09:40:53.547Z,98537.75
2024-05-09T09:45:04.890Z,98543.41
2024-05-09T09:49:12.037Z,98532.59
2024-05-09T09:53:19.848Z,98531.66
2024-05-09T09:57:26.698Z,98531.44
2024-05-09T10:01:31.469Z,98533.13
2024-05-09T10:05:37.270Z,98530.34
2024-05-09T10:09:45.953Z,98527.34
2024-05-09T10:13:50.771Z,98532.63
2024-05-09T10:17:53.143Z,98523.97
2024-05-09T10:22:06.096Z,98523.63
2024-05-09T10:26:14.111Z,98518.34
2024-05-09T10:30:33.680Z,98516.03
2024-05-09T10:34:40.637Z,98511.41
2024-05-09T10:38:45.798Z,98509.22
2024-05-09T10:42:53.252Z,98507.97
2024-05-09T10:46:58.119Z,98513.72
2024-05-09T10:51:00.815Z,98504.34
2024-05-09T10:55:06.188Z,98505.44
2024-05-09T10:59:12.899Z,98499.03
2024-05-09T11:03:17.670Z,98493.75
2024-05-09T11:07:23.270Z,98490.66
2024-05-09T11:11:30.069Z,98488.50
2024-05-09T11:15:43.341Z,98480.84
2024-05-09T11:19:48.430Z,98479.28
2024-05-09T11:23:53.351Z,98479.09
2024-05-09T11:28:01.491Z,98465.75
2024-05-09T11:32:11.603Z,98470.59
2024-05-09T11:36:17.736Z,98470.88
2024-05-09T11:40:25.758Z,98468.38
2024-05-09T11:44:36.792Z,98468.06
2024-05-09T11:48:44.698Z,98465.38
2024-05-09T11:52:49.571Z,98462.41
2024-05-09T11:56:54.965Z,98461.25
2024-05-09T12:01:00.793Z,98466.63
2024-05-09T12:05:08.316Z,98463.88
2024-05-09T12:09:13.101Z,98460.19
2024-05-09T12:13:17.869Z,98460.66
2024-05-09T12:17:22.718Z,98451.19
2024-05-09T12:21:30.141Z,98439.91
2024-05-09T12:25:34.926Z,98444.75
2024-05-09T12:29:39.629Z,98433.59
2024-05-09T12:33:44.516Z,98432.91
2024-05-09T12:37:52.783Z,98432.19
2024-05-09T12:41:57.499Z,98427.41
2024-05-09T12:46:03.518Z,98423.75
2024-05-09T12:50:18.730Z,98417.22
2024-05-09T12:54:33.600Z,98406.88
2024-05-09T12:58:38.581Z,98407.91
2024-05-09T13:02:43.310Z,98399.31
2024-05-09T13:06:48.166Z,98401.84
2024-05-09T13:10:53.085Z,98397.09
2024-05-09T13:14:57.838Z,98401.13
2024-05-09T13:19:02.620Z,98394.56
2024-05-09T13:23:08.825Z,98390.38
2024-05-09T13:27:16.294Z,98394.97
2024-05-09T13:31:21.040Z,98386.75
2024-05-09T13:35:23.189Z,98384.25
2024-05-09T13:39:27.890Z,98375.34
2024-05-09T13:43:35.312Z,98377.59
2024-05-09T13:47:40.320Z,98370.63
2024-05-09T13:51:45.227Z,98371.19
2024-05-09T13:55:50.512Z,98364.59
2024-05-09T13:59:57.915Z,98367.16
2024-05-09T14:04:02.835Z,98368.69
2024-05-09T14:08:08.613Z,98361.41
2024-05-09T14:12:13.361Z,98359.44
2024-05-09T14:16:20.942Z,98350.38
2024-05-09T14:20:31.118Z,98347.56
2024-05-09T14:24:37.149Z,98342.66
2024-05-09T14:28:41.894Z,98330.91
2024-05-09T14:32:46.801Z,98334.75
2024-05-09T14:36:52.714Z,98320.47
2024-05-09T14:40:57.568Z,98320.41
2024-05-09T14:45:02.430Z,98308.91
2024-05-09T14:49:12.422Z,98309.03
2024-05-09T14:53:17.567Z,98303.28
2024-05-09T14:57:22.901Z,98296.56
2024-05-09T15:01:28.204Z,98295.41
2024-05-09T15:05:35.694Z,98298.06
2024-05-09T15:09:40.505Z,98289.47
2024-05-09T15:13:45.266Z,98291.47
2024-05-09T15:17:50.173Z,98288.69
2024-05-09T15:21:57.650Z,98285.78
2024-05-09T15:26:02.469Z,98281.06
2024-05-09T15:30:10.741Z,98280.94
2024-05-09T15:34:15.894Z,98280.69
2024-05-09T15:38:21.238Z,98273.81
2024-05-09T15:42:25.935Z,98272.78
2024-05-09T15:46:30.796Z,98271.00
2024-05-09T15:50:39.668Z,98269.91
2024-05-09T15:54:49.218Z,98272.72
2024-05-09T15:58:57.198Z,98272.16
2024-05-09T16:03:00.006Z,98264.63
2024-05-09T16:07:04.870Z,98271.91
2024-05-09T16:11:09.912Z,98266.47
2024-05-09T16:15:14.940Z,98266.59
2024-05-09T16:19:19.869Z,98267.19
2024-05-09T16:23:24.664Z,98257.16
2024-05-09T16:27:32.188Z,98257.44
2024-05-09T16:31:36.918Z,98250.75
2024-05-09T16:35:41.961Z,98247.69
2024-05-09T16:39:46.702Z,98244.88
2024-05-09T16:43:54.028Z,98242.78
2024-05-09T16:47:56.573Z,98238.44
2024-05-09T16:52:01.409Z,98236.38
2024-05-09T16:56:06.544Z,98231.53
2024-05-09T17:00:21.976Z,98239.63
2024-05-09T17:04:34.912Z,98234.59
2024-05-09T17:08:41.059Z,98235.59
2024-05-09T17:12:45.799Z,98241.06
2024-05-09T17:16:53.264Z,98239.38
2024-05-09T17:20:57.960Z,98238.00
2024-05-09T17:25:02.770Z,98242.47
2024-05-09T17:29:10.918Z,98247.91
2024-05-09T17:33:16.909Z,98259.09
2024-05-09T17:37:21.899Z,98254.75
2024-05-09T17:41:26.701Z,98246.09
2024-05-09T17:45:31.659Z,98242.41
2024-05-09T17:49:39.327Z,98251.59
2024-05-09T17:53:44.037Z,98250.88
2024-05-09T17:57:48.833Z,98247.63
2024-05-09T18:01:53.597Z,98246.16
2024-05-09T18:06:01.203Z,98253.88
2024-05-09T18:10:15.922Z,98251.50
2024-05-09T18:14:26.761Z,98256.75
2024-05-09T18:18:31.587Z,98256.81
2024-05-09T18:22:38.983Z,98259.13
2024-05-09T18:26:44.113Z,98256.00
2024-05-09T18:30:48.853Z,98255.31
2024-05-09T18:34:53.702Z,98257.28
2024-05-09T18:39:01.061Z,98257.28
2024-05-09T18:43:08.481Z,98261.47
2024-05-09T18:47:15.975Z,98262.00
2024-05-09T18:51:22.257Z,98263.38
2024-05-09T18:55:26.964Z,98264.16
2024-05-09T18:59:31.672Z,98263.28
2024-05-09T19:03:36.533Z,98260.19
2024-05-09T19:07:41.652Z,98264.34
2024-05-09T19:11:51.081Z,98271.69
2024-05-09T19:15:56.467Z,98279.34
2024-05-09T19:20:09.257Z,98278.19
2024-05-09T19:24:57.145Z,98287.91
2024-05-09T19:29:57.747Z,98284.16
2024-05-09T19:39:24.094Z,98298.75
2024-05-09T19:43:30.699Z,98295.06
2024-05-09T19:47:39.754Z,98305.56
2024-05-09T19:51:44.864Z,98304.63
2024-05-09T19:55:50.391Z,98300.09
2024-05-09T19:59:55.517Z,98304.47
2024-05-09T20:04:04.408Z,98309.06
2024-05-09T20:08:10.852Z,98311.72
2024-05-09T20:12:16.191Z,98317.75
2024-05-09T20:16:21.725Z,98318.25
2024-05-09T20:20:37.080Z,98318.84
2024-05-09T20:24:46.075Z,98326.66
2024-05-09T20:28:51.559Z,98326.53
2024-05-09T20:32:56.534Z,98329.78
2024-05-09T20:37:04.879Z,98330.25
2024-05-09T20:41:09.803Z,98321.03
2024-05-09T20:45:15.079Z,98325.31
2024-05-09T20:49:20.301Z,98328.50
2024-05-09T20:53:27.893Z,98320.13
2024-05-09T20:57:32.685Z,98326.94
2024-05-09T21:01:37.774Z,98329.19
2024-05-09T21:05:43.285Z,98331.47
2024-05-09T21:09:53.694Z,98320.53
2024-05-09T21:20:36.609Z,98312.13
2024-05-09T21:35:05.653Z,98316.47
2024-05-09T21:39:12.350Z,98315.44
2024-05-09T22:32:42.279Z,98294.38
2024-05-09T22:36:53.060Z,98291.63
2024-05-09T22:55:21.122Z,98290.94
2024-05-09T23:07:14.015Z,98284.44
2024-05-09T23:11:53.204Z,98289.19
